Washta, Iowa
Current Conditions -  °F | °C
As of 7:35 PM on Wednesday 22 Oct 2014 (Local Time) from KCKP Reporting Station
Moderate Rain Moderate Rain  
Wind Chill: 16°   Ceiling: 3800
Heat Index: 16°   Visibility: 7mi
Dew Point: 15°   Wind: 5mph
Humidity: 96%   Direction: 210°SSW
Pressure: 30.05"   Gusts: NA
Location:  42.58°N, 95.72°W
Report Text: KCKP 230035Z AUTO 21004KT 7SM RA BKN038 OVC043 16/15 A3005 RMK AO2 P0003 T01560150
Loading
Personal Weather Stations






























Interactive Weather Map
Tropical Storm Tracking
New forecast layout! Learn more

10-Day Weather Forecast

Advertisements
Track Severe Weather on mobile